createdAt,value
2023-05-23T00:04:49.410Z,1.00
2023-05-23T00:09:50.945Z,1.38
2023-05-23T00:14:53.692Z,1.17
2023-05-23T00:19:56.221Z,1.73
2023-05-23T00:24:57.922Z,1.23
2023-05-23T00:29:59.467Z,1.60
2023-05-23T00:35:01.039Z,1.35
2023-05-23T00:40:02.584Z,1.55
2023-05-23T00:45:04.342Z,1.50
2023-05-23T00:50:08.386Z,1.30
2023-05-23T00:55:12.101Z,1.35
2023-05-23T01:00:14.217Z,1.30
2023-05-23T01:05:17.846Z,1.15
2023-05-23T01:10:21.035Z,1.20
2023-05-23T01:15:24.230Z,1.20
2023-05-23T01:20:28.901Z,1.02
2023-05-23T01:25:40.193Z,1.35
2023-05-23T01:30:44.500Z,1.50
2023-05-23T01:35:46.234Z,1.63
2023-05-23T01:40:47.792Z,1.30
2023-05-23T01:45:49.834Z,1.30
2023-05-23T01:50:52.123Z,1.17
2023-05-23T01:55:54.059Z,1.35
2023-05-23T02:00:56.088Z,1.23
2023-05-23T02:05:57.712Z,1.30
2023-05-23T02:10:59.339Z,1.70
2023-05-23T02:16:01.066Z,1.42
2023-05-23T02:21:02.592Z,1.60
2023-05-23T02:26:04.183Z,1.23
2023-05-23T02:31:06.470Z,1.45
2023-05-23T02:36:08.170Z,1.33
2023-05-23T02:41:09.776Z,1.40
2023-05-23T02:46:13.735Z,1.55
2023-05-23T02:51:15.440Z,1.27
2023-05-23T02:56:17.028Z,1.40
2023-05-23T03:01:18.880Z,1.35
2023-05-23T03:06:22.526Z,1.50
2023-05-23T03:11:24.168Z,1.52
2023-05-23T03:16:25.916Z,1.38
2023-05-23T03:21:27.531Z,1.40
2023-05-23T03:26:29.057Z,1.38
2023-05-23T03:31:30.617Z,1.60
2023-05-23T03:36:36.011Z,1.67
2023-05-23T03:41:37.577Z,1.38
2023-05-23T03:46:40.217Z,1.85
2023-05-23T03:51:42.013Z,1.52
2023-05-23T03:56:43.906Z,1.63
2023-05-23T04:01:45.518Z,1.50
2023-05-23T04:06:47.607Z,1.17
2023-05-23T04:11:49.182Z,1.52
2023-05-23T04:16:50.724Z,1.27
2023-05-23T04:21:52.268Z,1.50
2023-05-23T04:26:56.435Z,1.83
2023-05-23T04:31:58.846Z,1.40
2023-05-23T04:37:02.412Z,1.92
2023-05-23T04:42:04.054Z,1.42
2023-05-23T04:47:05.974Z,1.52
2023-05-23T04:52:07.648Z,1.42
2023-05-23T04:57:09.223Z,1.40
2023-05-23T05:02:10.890Z,1.88
2023-05-23T05:07:12.474Z,1.35
2023-05-23T05:12:14.093Z,1.50
2023-05-23T05:17:15.671Z,1.35
2023-05-23T05:22:17.230Z,1.50
2023-05-23T05:27:19.070Z,1.63
2023-05-23T05:32:21.308Z,1.35
2023-05-23T05:37:22.932Z,1.17
2023-05-23T05:42:24.608Z,1.17
2023-05-23T05:47:26.642Z,1.52
2023-05-23T05:52:28.298Z,1.27
2023-05-23T05:57:29.837Z,1.40
2023-05-23T06:02:31.670Z,1.50
2023-05-23T06:07:33.833Z,1.40
2023-05-23T06:12:35.816Z,1.52
2023-05-23T06:17:37.692Z,1.55
2023-05-23T06:22:39.376Z,1.30
2023-05-23T06:27:41.452Z,1.25
2023-05-23T06:32:43.054Z,1.50
2023-05-23T06:37:46.040Z,1.75
2023-05-23T06:42:47.961Z,1.45
2023-05-23T06:47:49.782Z,1.55
2023-05-23T06:52:51.542Z,1.58
2023-05-23T06:57:53.126Z,1.35
2023-05-23T07:02:54.819Z,1.58
2023-05-23T07:07:56.491Z,1.40
2023-05-23T07:12:58.025Z,1.38
2023-05-23T07:17:59.628Z,1.50
2023-05-23T07:23:01.275Z,1.48
2023-05-23T07:28:03.012Z,1.50
2023-05-23T07:33:04.853Z,1.63
2023-05-23T07:38:06.484Z,2.08
2023-05-23T07:43:08.116Z,1.98
2023-05-23T07:48:10.070Z,1.20
2023-05-23T07:53:11.679Z,1.75
2023-05-23T07:58:13.244Z,1.52
2023-05-23T08:03:14.909Z,1.50
2023-05-23T08:08:16.647Z,1.50
2023-05-23T08:13:18.515Z,1.33
2023-05-23T08:18:20.205Z,1.42
2023-05-23T08:23:21.882Z,1.63
2023-05-23T08:28:23.435Z,1.42
2023-05-23T08:33:25.032Z,1.10
2023-05-23T08:38:27.345Z,1.55
2023-05-23T08:43:29.159Z,1.33
2023-05-23T08:48:31.209Z,1.45
2023-05-23T08:53:33.240Z,1.35
2023-05-23T08:58:35.623Z,1.35
2023-05-23T09:03:37.883Z,1.67
2023-05-23T09:08:39.450Z,1.58
2023-05-23T09:13:41.937Z,1.50
2023-05-23T09:18:44.391Z,1.30
2023-05-23T09:23:46.077Z,1.40
2023-05-23T09:28:48.847Z,1.10
2023-05-23T09:33:50.580Z,1.48
2023-05-23T09:38:55.051Z,1.15
2023-05-23T09:43:56.953Z,1.40
2023-05-23T09:49:00.361Z,1.40
2023-05-23T09:54:01.914Z,2.00
2023-05-23T09:59:04.204Z,1.33
2023-05-23T10:04:06.378Z,1.30
2023-05-23T10:09:10.068Z,1.42
2023-05-23T10:14:12.531Z,1.42
2023-05-23T10:19:16.859Z,1.17
2023-05-23T10:24:18.945Z,1.23
2023-05-23T10:29:21.797Z,1.50
2023-05-23T10:34:23.319Z,1.60
2023-05-23T10:39:44.595Z,1.00
2023-05-23T10:44:46.181Z,1.27
2023-05-23T10:49:51.924Z,1.10
2023-05-23T10:54:54.434Z,1.73
2023-05-23T10:59:55.992Z,1.45
2023-05-23T11:05:16.578Z,1.40
2023-05-23T11:10:18.385Z,1.20
2023-05-23T11:15:24.059Z,1.45
2023-05-23T11:20:27.640Z,1.20
2023-05-23T11:25:43.174Z,1.50
2023-05-23T11:30:48.082Z,1.30
2023-05-23T11:35:51.354Z,1.25
2023-05-23T11:40:52.919Z,1.40
2023-05-23T11:45:54.596Z,1.80
2023-05-23T11:50:56.215Z,1.40
2023-05-23T11:56:00.218Z,1.50
2023-05-23T12:01:06.522Z,1.25
2023-05-23T12:06:08.226Z,1.60
2023-05-23T12:11:09.872Z,1.70
2023-05-23T12:16:13.563Z,1.40
2023-05-23T12:21:15.189Z,1.50
2023-05-23T12:26:17.167Z,1.50
2023-05-23T12:31:19.687Z,1.23
2023-05-23T12:36:22.998Z,1.73
2023-05-23T12:41:24.617Z,1.17
2023-05-23T12:46:26.822Z,1.30
2023-05-23T12:51:28.589Z,1.35
2023-05-23T12:56:30.147Z,1.30
2023-05-23T13:01:31.888Z,1.63
2023-05-23T13:06:33.590Z,1.58
2023-05-23T13:11:35.460Z,1.65
2023-05-23T13:16:37.422Z,1.08
2023-05-23T13:21:39.091Z,1.40
2023-05-23T13:26:40.681Z,1.05
2023-05-23T13:31:42.380Z,1.50
2023-05-23T13:36:44.043Z,1.15
2023-05-23T13:41:45.761Z,1.42
2023-05-23T13:46:47.629Z,1.13
2023-05-23T13:51:50.284Z,1.27
2023-05-23T13:56:51.851Z,1.38
2023-05-23T14:01:53.586Z,1.83
2023-05-23T14:06:55.146Z,1.13
2023-05-23T14:11:56.731Z,1.52
2023-05-23T14:16:58.672Z,1.30
2023-05-23T14:22:00.264Z,1.60
2023-05-23T14:27:02.639Z,1.20
2023-05-23T14:32:04.377Z,1.23
2023-05-23T14:37:06.013Z,1.30
2023-05-23T14:42:07.624Z,1.25
2023-05-23T14:47:09.545Z,1.30
2023-05-23T14:52:12.771Z,1.10
2023-05-23T14:57:14.384Z,1.42
2023-05-23T15:02:16.331Z,1.58
2023-05-23T15:07:18.423Z,1.10
2023-05-23T15:12:20.943Z,1.20
2023-05-23T15:17:25.790Z,1.17
2023-05-23T15:27:33.327Z,1.20
2023-05-23T15:32:34.940Z,1.15
2023-05-23T15:37:36.534Z,1.40
2023-05-23T15:42:38.309Z,0.95
2023-05-23T15:47:40.341Z,1.90
2023-05-23T15:52:42.074Z,1.23
2023-05-23T15:57:43.693Z,0.77
2023-05-23T16:02:45.972Z,1.15
2023-05-23T16:07:47.735Z,1.55
2023-05-23T16:12:49.266Z,1.00
2023-05-23T16:17:50.895Z,1.27
2023-05-23T16:22:52.563Z,1.10
2023-05-23T16:27:54.204Z,2.72
2023-05-23T16:32:55.807Z,1.42
2023-05-23T16:37:57.455Z,1.20
2023-05-23T16:42:59.088Z,1.15
2023-05-23T16:48:01.458Z,1.40
2023-05-23T16:53:03.255Z,1.17
2023-05-23T16:58:04.861Z,1.30
2023-05-23T17:03:06.815Z,1.10
2023-05-23T17:08:08.496Z,1.40
2023-05-23T17:13:10.094Z,1.35
2023-05-23T17:18:11.654Z,1.08
2023-05-23T17:23:13.242Z,1.52
2023-05-23T17:28:14.844Z,1.30
2023-05-23T17:33:16.444Z,1.55
2023-05-23T17:38:18.084Z,1.95
2023-05-23T17:43:19.790Z,1.40
2023-05-23T17:48:31.177Z,1.83
2023-05-23T17:53:41.449Z,1.50
2023-05-23T17:58:44.339Z,1.25
2023-05-23T18:03:46.564Z,1.80
2023-05-23T18:08:48.427Z,1.63
2023-05-23T18:13:50.129Z,1.20
2023-05-23T18:18:51.757Z,1.38
2023-05-23T18:23:53.347Z,1.60
2023-05-23T18:28:55.225Z,2.00
2023-05-23T18:33:56.850Z,1.38
2023-05-23T18:38:58.549Z,1.52
2023-05-23T18:44:00.229Z,1.67
2023-05-23T18:49:02.221Z,1.58
2023-05-23T18:54:03.837Z,2.05
2023-05-23T18:59:05.410Z,1.70
2023-05-23T19:04:07.665Z,1.60
2023-05-23T19:09:09.703Z,1.77
2023-05-23T19:14:11.485Z,1.73
2023-05-23T19:19:13.157Z,1.85
2023-05-23T19:24:14.811Z,1.92
2023-05-23T19:29:16.323Z,1.92
2023-05-23T19:34:17.921Z,2.00
2023-05-23T19:39:19.900Z,1.60
2023-05-23T19:44:21.496Z,1.70
2023-05-23T19:49:23.232Z,2.03
2023-05-23T19:54:24.977Z,1.65
2023-05-23T19:59:26.984Z,1.98
2023-05-23T20:04:28.609Z,2.10
2023-05-23T20:09:30.202Z,2.40
2023-05-23T20:14:32.281Z,2.00
2023-05-23T20:19:34.114Z,2.25
2023-05-23T20:24:35.810Z,2.35
2023-05-23T20:29:37.684Z,2.20
2023-05-23T20:34:39.364Z,1.90
2023-05-23T20:39:43.907Z,1.95
2023-05-23T20:44:45.518Z,1.92
2023-05-23T20:49:47.860Z,2.30
2023-05-23T20:54:49.462Z,2.00
2023-05-23T20:59:51.016Z,2.20
2023-05-23T21:04:52.594Z,2.00
2023-05-23T21:09:54.109Z,1.92
2023-05-23T21:14:57.276Z,1.92
2023-05-23T21:19:58.837Z,2.38
2023-05-23T21:25:00.433Z,2.25
2023-05-23T21:30:02.150Z,2.55
2023-05-23T21:35:04.115Z,2.00
2023-05-23T21:40:06.408Z,2.00
2023-05-23T21:45:08.242Z,2.80
2023-05-23T21:50:10.081Z,2.20
2023-05-23T21:55:11.652Z,1.88
2023-05-23T22:00:13.480Z,2.47
2023-05-23T22:05:15.444Z,2.15
2023-05-23T22:10:17.104Z,2.63
2023-05-23T22:15:18.658Z,2.55
2023-05-23T22:20:20.411Z,2.28
2023-05-23T22:25:25.105Z,2.13
2023-05-23T22:30:26.708Z,2.20
2023-05-23T22:35:28.841Z,2.60
2023-05-23T22:40:30.391Z,2.70
2023-05-23T22:45:40.666Z,2.15
2023-05-23T22:50:42.798Z,2.30
2023-05-23T22:55:44.564Z,2.22
2023-05-23T23:00:46.251Z,2.50
2023-05-23T23:05:47.876Z,2.90
2023-05-23T23:10:49.522Z,2.80
2023-05-23T23:15:52.628Z,2.80
2023-05-23T23:20:57.052Z,2.42
2023-05-23T23:25:59.616Z,2.88
2023-05-23T23:31:01.293Z,2.47
2023-05-23T23:36:02.905Z,2.70
2023-05-23T23:41:04.492Z,2.72
2023-05-23T23:46:06.087Z,2.67
2023-05-23T23:51:08.769Z,2.88
2023-05-23T23:56:10.314Z,2.55
